Latest Coastal Weather Observations for Walpole North

IDW60701

Issued at 12:32 pm WST Sunday 5 July 2015 (issued every 10 minutes, with the page automatically refreshed every 10 minutes)

About coastal observations | Map of coastal stations | Coastal observations for WA | Marine services | Other Formats
Station Details ID: 009998 Name: NORTH WALPOLE Lat: -34.95 Lon: 116.72 Height: 73.0 m
Data from the previous 72 hours. | See also: Recent months at Walpole North
Date/Time
WST
Temp

°C
Wind Pressure Rain
since 9am
mm
Weather Cloud Vis
km
Sea
Height
m
Swell
Dir
 
Speed
knots
Gust
knots
hPa Trend Height
m
Period
s
Dir
05/12:30pm 16.6 WNW 7 9 1019.6 - 0.0 - - - - - - -
05/12:00pm 15.7 WNW 6 10 1019.9 - 0.0 - - - - - - -
05/11:30am 16.3 WNW 5 9 1020.4 - 0.0 - - - - - - -
05/11:00am 14.9 WNW 5 7 1020.5 - 0.0 - - - - - - -
05/10:30am 14.6 NW 7 9 1020.8 - 0.0 - - - - - - -
05/10:00am 13.2 NW 6 8 1020.8 - 0.0 - - - - - - -
05/09:30am 12.7 NW 5 7 1020.7 - 0.0 - - - - - - -
05/09:00am 11.2 CALM 0 0 1020.5 - 4.8 - - - - - - -
05/08:30am 10.7 W 2 8 1020.4 - 4.8 - - - - - - -
05/08:00am 11.3 CALM 0 0 1020.2 - 4.8 - - - - - - -
05/07:30am 11.2 NW 5 6 1020.0 - 4.8 - - - - - - -
05/07:00am 11.2 NW 5 6 1019.8 - 4.8 - - - - - - -
05/06:30am 10.9 NNW 6 8 1019.6 - 4.8 - - - - - - -
05/06:00am 11.0 NW 5 7 1019.4 - 4.8 - - - - - - -
05/05:30am 10.2 NW 1 5 1019.2 - 4.8 - - - - - - -
05/05:00am 10.5 CALM 0 0 1019.1 - 4.8 - - - - - - -
05/04:30am 10.8 WNW 4 7 1019.0 - 4.8 - - - - - - -
05/04:00am 11.3 NW 5 6 1019.0 - 4.8 - - - - - - -
05/03:30am 11.1 NNW 4 5 1019.1 - 4.8 - - - - - - -
05/03:00am 10.7 WNW 4 5 1019.2 - 4.8 Recent precip. - - - - - -
05/02:30am 10.9 WNW 4 5 1019.3 - 4.8 - - - - - - -
05/02:00am 11.2 WNW 4 5 1019.1 - 4.6 - - - - - - -
05/01:30am 11.9 WNW 3 5 1019.1 - 4.6 - - - - - - -
05/01:00am 11.7 CALM 0 0 1019.1 - 4.6 - - - - - - -
05/12:30am 12.0 WNW 1 4 1019.2 - 4.6 - - - - - - -
05/12:00am 12.2 CALM 0 0 1019.3 - 4.6 - - - - - - -
 
Date/Time
WST
Temp

°C
Wind Pressure Rain
since 9am
mm
Weather Cloud Vis
km
Sea
Height
m
Swell
Dir
 
Speed
knots
Gust
knots
hPa Trend Height
m
Period
s
Dir
04/11:30pm 12.9 WSW 5 7 1019.2 - 4.6 - - - - - - -
04/11:00pm 13.4 WSW 4 8 1019.0 - 4.6 - - - - - - -
04/10:30pm 13.5 W 5 9 1018.8 - 4.6 - - - - - - -
04/10:00pm 13.5 NW 11 15 1018.5 - 3.2 - - - - - - -
04/09:30pm 13.3 WNW 7 11 1018.5 - 3.0 - - - - - - -
04/09:00pm 13.8 WNW 11 16 1018.4 - 0.6 Rain - - - - - -
04/08:30pm 15.2 NW 13 17 1017.8 - 0.0 - - - - - - -
04/08:00pm 15.3 NW 12 19 1017.9 - 0.0 - - - - - - -
04/07:30pm 15.2 NW 12 17 1017.8 - 0.0 - - - - - - -
04/07:00pm 15.2 NW 11 15 1018.0 - 0.0 - - - - - - -
04/06:30pm 15.2 NW 11 18 1017.9 - 0.0 - - - - - - -
04/06:00pm 15.0 NW 9 13 1017.9 - 0.0 - - - - - - -
04/05:30pm 15.4 NW 10 14 1018.0 - 0.0 - - - - - - -
04/05:00pm 15.8 NW 11 14 1018.0 - 0.0 - - - - - - -
04/04:30pm 16.0 NW 11 16 1017.8 - 0.0 - - - - - - -
04/04:00pm 16.7 WNW 9 15 1018.3 - 0.0 - - - - - - -
04/03:30pm 17.0 WNW 11 23 1018.1 - 0.0 - - - - - - -
04/03:00pm 17.5 WNW 13 20 1018.1 - 0.0 - - - - - - -
04/02:30pm 17.8 W 13 21 1017.9 - 0.0 - - - - - - -
04/02:00pm 17.3 WNW 11 16 1018.0 - 0.0 - - - - - - -
04/01:30pm 17.3 WNW 9 14 1018.2 - 0.0 - - - - - - -
04/01:00pm 17.5 WNW 11 20 1018.4 - 0.0 - - - - - - -
04/12:30pm 17.6 WNW 10 17 1018.7 - 0.0 - - - - - - -
04/12:00pm 17.4 WNW 12 18 1019.1 - 0.0 - - - - - - -
04/11:30am 17.8 NW 11 18 1019.5 - 0.0 - - - - - - -
04/11:00am 16.7 NW 11 15 1019.8 - 0.0 - - - - - - -
04/10:30am 16.2 NW 12 17 1020.2 - 0.0 - - - - - - -
04/10:00am 15.4 WNW 9 13 1020.6 - 0.0 - - - - - - -
04/09:30am 15.1 NW 8 11 1020.2 - 0.0 - - - - - - -
04/09:00am 14.9 NNW 8 11 1020.1 - 1.6 - - - - - - -
04/08:30am 14.2 NNW 5 8 1020.1 - 1.6 - - - - - - -
04/08:00am 14.1 NW 8 11 1020.1 - 1.6 - - - - - - -
04/07:30am 13.7 NW 9 11 1020.2 - 1.6 - - - - - - -
04/07:00am 13.6 WNW 5 6 1020.0 - 1.6 - - - - - - -
04/06:30am 13.6 WNW 6 8 1020.0 - 1.6 - - - - - - -
04/06:00am 13.4 NW 7 10 1019.8 - 1.6 - - - - - - -
04/05:30am 13.1 NW 3 5 1019.8 - 1.6 - - - - - - -
04/05:00am 12.9 CALM 0 0 1020.0 - 1.6 - - - - - - -
04/04:30am 12.9 CALM 0 0 1020.1 - 1.6 - - - - - - -
04/04:00am 14.0 NNW 8 11 1020.0 - 1.6 - - - - - - -
04/03:30am 13.3 NW 4 7 1020.4 - 1.6 - - - - - - -
04/03:00am 13.4 NNW 6 8 1020.6 - 1.6 - - - - - - -
04/02:30am 12.9 NW 4 6 1021.0 - 1.6 - - - - - - -
04/02:00am 13.5 NW 6 8 1021.0 - 1.6 - - - - - - -
04/01:30am 13.5 NW 6 8 1021.1 - 1.6 - - - - - - -
04/01:00am 13.7 NW 9 13 1021.3 - 1.6 - - - - - - -
04/12:30am 13.6 NW 7 9 1021.4 - 1.4 - - - - - - -
04/12:00am 13.7 NW 6 8 1021.5 - 1.4 - - - - - - -
 
Date/Time
WST
Temp

°C
Wind Pressure Rain
since 9am
mm
Weather Cloud Vis
km
Sea
Height
m
Swell
Dir
 
Speed
knots
Gust
knots
hPa Trend Height
m
Period
s
Dir
03/11:30pm 13.4 WNW 4 5 1021.6 - 1.4 - - - - - - -
03/11:00pm 13.5 NW 9 11 1021.5 - 1.4 - - - - - - -
03/10:30pm 13.6 NW 7 9 1021.7 - 1.4 - - - - - - -
03/10:00pm 14.0 NW 6 9 1021.6 - 1.4 - - - - - - -
03/09:30pm 14.2 NW 7 10 1021.8 - 1.4 - - - - - - -
03/09:00pm 14.4 NW 6 7 1021.8 - 1.4 - - - - - - -
03/08:30pm 14.0 NNW 6 7 1021.8 - 1.4 - - - - - - -
03/08:00pm 14.5 NW 8 11 1021.9 - 1.4 - - - - - - -
03/07:30pm 14.1 NW 5 7 1022.0 - 1.4 - - - - - - -
03/07:00pm 14.5 NW 8 10 1021.9 - 1.2 - - - - - - -
03/06:30pm 14.9 WNW 4 7 1021.9 - 1.0 - - - - - - -
03/06:00pm 15.0 WNW 8 9 1021.6 - 0.6 - - - - - - -
03/05:30pm 15.2 WSW 5 8 1021.4 - 0.6 - - - - - - -
03/05:00pm 15.7 WSW 6 10 1021.3 - 0.6 - - - - - - -
03/04:30pm 16.2 WNW 6 8 1020.8 - 0.4 - - - - - - -
03/04:00pm 16.5 W 7 11 1020.8 - 0.4 - - - - - - -
03/03:30pm 16.9 WSW 6 10 1020.6 - 0.4 - - - - - - -
03/03:00pm 16.5 W 6 9 1020.6 - 0.4 - - - - - - -
03/02:30pm 16.6 WSW 7 11 1020.5 - 0.4 - - - - - - -
03/02:00pm 17.1 WSW 6 10 1020.3 - 0.4 - - - - - - -
03/01:30pm 17.2 WSW 5 10 1020.2 - 0.4 - - - - - - -
03/01:00pm 16.7 SW 7 12 1020.4 - 0.4 - - - - - - -
03/12:30pm 17.2 W 5 6 1020.5 - 0.2 - - - - - - -
03/12:00pm 17.1 W 5 7 1020.7 - 0.2 - - - - - - -
03/11:30am 16.5 WSW 6 8 1021.0 - 0.2 - - - - - - -
03/11:00am 16.9 WNW 6 10 1021.2 - 0.2 - - - - - - -
03/10:30am 16.0 W 5 7 1021.4 - 0.2 - - - - - - -
03/10:00am 15.8 WNW 6 9 1021.3 - 0.2 - - - - - - -
03/09:30am 15.6 NW 5 7 1021.2 - 0.0 - - - - - - -
03/09:00am 15.1 NW 6 8 1021.0 - 0.2 - - - - - - -
03/08:30am 15.0 NW 6 9 1020.8 - 0.2 - - - - - - -
03/08:00am 14.6 NW 9 11 1020.7 - 0.2 - - - - - - -
03/07:30am 14.2 WNW 7 10 1020.5 - 0.2 - - - - - - -
03/07:00am 14.4 NW 8 11 1020.2 - 0.0 - - - - - - -
03/06:30am 14.6 NW 9 13 1019.9 - 0.0 - - - - - - -
03/06:00am 14.8 NNW 7 9 1019.6 - 0.0 - - - - - - -
03/05:30am 14.8 NW 8 12 1019.6 - 0.0 - - - - - - -
03/05:00am 14.5 NW 6 8 1019.5 - 0.0 - - - - - - -
03/04:30am 13.6 NW 5 7 1019.5 - 0.0 - - - - - - -
03/04:00am 13.3 NW 3 5 1019.6 - 0.0 - - - - - - -
03/03:30am 13.3 WNW 3 5 1019.6 - 0.0 - - - - - - -
03/03:00am 14.3 NNW 6 9 1019.5 - 0.0 - - - - - - -
03/02:30am 14.1 NW 8 11 1019.7 - 0.0 - - - - - - -
03/02:00am 14.1 NW 8 10 1019.9 - 0.0 - - - - - - -
03/01:30am 14.2 NW 7 11 1019.9 - 0.0 - - - - - - -
03/01:00am 14.4 NNW 5 9 1019.9 - 0.0 - - - - - - -
03/12:30am 14.7 NW 6 8 1019.9 - 0.0 - - - - - - -
03/12:00am 14.8 NW 8 11 1020.0 - 0.0 - - - - - - -
 
Date/Time
WST
Temp

°C
Wind Pressure Rain
since 9am
mm
Weather Cloud Vis
km
Sea
Height
m
Swell
Dir
 
Speed
knots
Gust
knots
hPa Trend Height
m
Period
s
Dir
02/11:30pm 15.1 NW 9 13 1020.1 - 0.0 - - - - - - -
02/11:00pm 15.2 NW 7 11 1020.2 - 0.0 - - - - - - -
02/10:30pm 15.8 NNW 6 9 1020.3 - 0.0 - - - - - - -
02/10:00pm 15.9 NNW 7 11 1020.3 - 0.0 - - - - - - -
02/09:30pm 15.5 NW 6 8 1020.4 - 0.0 - - - - - - -
02/09:00pm 15.0 NNW 5 8 1020.4 - 0.0 - - - - - - -
02/08:30pm 14.8 NNW 1 3 1020.4 - 0.0 - - - - - - -
02/08:00pm 14.7 CALM 0 0 1020.3 - 0.0 - - - - - - -
02/07:30pm 14.0 SSW 2 5 1020.2 - 0.0 - - - - - - -
02/07:00pm 16.5 N 5 8 1019.7 - 0.0 - - - - - - -
02/06:30pm 16.2 N 4 6 1019.8 - 0.0 - - - - - - -
02/06:00pm 17.0 NNE 6 8 1019.5 - 0.0 - - - - - - -
02/05:30pm 16.3 NNE 2 6 1019.3 - 0.0 - - - - - - -
02/05:00pm 16.6 N 4 6 1019.5 - 0.0 - - - - - - -
02/04:30pm 17.2 NNE 5 7 1019.5 - 0.0 - - - - - - -
02/04:00pm 18.1 CALM 0 0 1019.4 - 0.0 - - - - - - -
02/03:30pm 17.6 N 3 6 1019.5 - 0.0 - - - - - - -
02/03:00pm 17.4 N 4 6 1019.5 - 0.0 - - - - - - -
02/02:30pm 17.1 N 5 7 1019.3 - 0.0 - - - - - - -
02/02:00pm 17.5 N 4 7 1019.5 - 0.0 - - - - - - -
02/01:30pm 17.9 NNW 4 8 1019.7 - 0.0 - - - - - - -
02/01:00pm 17.6 N 5 9 1020.0 - 0.0 - - - - - - -

Other Formats:

Comma delimited format used in spreadsheet applications
http://www.bom.gov.au/fwo/IDW60701/IDW60701.95647.axf

JavaScript Object Notation format (JSON) in row-major order
http://www.bom.gov.au/fwo/IDW60701/IDW60701.95647.json